createdAt,value
2022-11-06T00:00:43.226Z,81.88
2022-11-06T00:03:30.974Z,81.41
2022-11-06T00:06:16.180Z,81.86
2022-11-06T00:09:03.057Z,81.88
2022-11-06T00:11:50.025Z,81.77
2022-11-06T00:14:37.682Z,80.87
2022-11-06T00:17:24.778Z,81.66
2022-11-06T00:20:11.674Z,81.90
2022-11-06T00:22:58.660Z,80.84
2022-11-06T00:25:45.493Z,81.19
2022-11-06T00:28:33.050Z,81.36
2022-11-06T00:31:24.747Z,80.92
2022-11-06T00:34:13.550Z,81.10
2022-11-06T00:37:00.326Z,81.13
2022-11-06T00:39:47.245Z,81.09
2022-11-06T00:42:34.153Z,81.25
2022-11-06T00:45:21.051Z,82.01
2022-11-06T00:48:08.678Z,80.93
2022-11-06T00:50:56.107Z,82.03
2022-11-06T00:53:43.124Z,82.06
2022-11-06T00:56:34.201Z,81.59
2022-11-06T00:59:23.591Z,81.82
2022-11-06T01:02:10.572Z,81.70
2022-11-06T01:04:57.697Z,81.21
2022-11-06T01:07:44.531Z,81.97
2022-11-06T01:10:31.465Z,80.76
2022-11-06T01:13:18.299Z,82.21
2022-11-06T01:16:05.265Z,81.00
2022-11-06T01:18:52.179Z,81.49
2022-11-06T01:21:44.777Z,81.97
2022-11-06T01:24:35.422Z,81.85
2022-11-06T01:27:26.989Z,81.05
2022-11-06T01:30:15.483Z,81.65
2022-11-06T01:33:02.434Z,81.45
2022-11-06T01:35:49.362Z,82.23
2022-11-06T01:38:37.219Z,81.50
2022-11-06T01:41:24.158Z,81.70
2022-11-06T01:44:12.273Z,81.65
2022-11-06T01:46:59.177Z,82.24
2022-11-06T01:49:47.478Z,81.39
2022-11-06T01:52:36.174Z,81.63
2022-11-06T01:55:42.831Z,81.44
2022-11-06T01:58:35.644Z,81.44
2022-11-06T02:01:23.992Z,82.09
2022-11-06T02:04:23.890Z,82.19
2022-11-06T02:07:11.385Z,81.48
2022-11-06T02:09:58.431Z,81.66
2022-11-06T02:13:23.576Z,81.91
2022-11-06T02:16:49.738Z,81.62
2022-11-06T02:19:59.999Z,81.30
2022-11-06T02:23:10.971Z,81.92
2022-11-06T02:26:29.353Z,81.68
2022-11-06T02:29:22.990Z,81.46
2022-11-06T02:32:14.689Z,82.17
2022-11-06T02:35:04.371Z,82.42
2022-11-06T02:37:56.393Z,82.25
2022-11-06T02:40:46.225Z,81.55
2022-11-06T02:43:35.900Z,81.95
2022-11-06T02:46:57.166Z,82.40
2022-11-06T02:49:48.443Z,82.49
2022-11-06T02:52:50.579Z,82.71
2022-11-06T02:55:43.350Z,82.74
2022-11-06T02:58:43.619Z,82.51
2022-11-06T03:01:46.954Z,81.92
2022-11-06T03:04:43.167Z,81.98
2022-11-06T03:07:56.987Z,82.27
2022-11-06T03:10:49.869Z,82.11
2022-11-06T03:13:53.812Z,82.04
2022-11-06T03:16:47.868Z,81.92
2022-11-06T03:19:44.274Z,81.93
2022-11-06T03:22:51.830Z,82.41
2022-11-06T03:26:04.025Z,82.97
2022-11-06T03:28:55.755Z,82.35
2022-11-06T03:31:54.923Z,82.83
2022-11-06T03:34:48.863Z,82.56
2022-11-06T03:37:48.305Z,82.92
2022-11-06T03:40:39.771Z,83.17
2022-11-06T03:43:30.884Z,83.19
2022-11-06T03:46:21.871Z,82.94
2022-11-06T03:49:24.478Z,82.84
2022-11-06T03:52:17.208Z,82.24
2022-11-06T03:55:13.001Z,82.99
2022-11-06T03:58:06.616Z,82.55
2022-11-06T04:00:56.412Z,83.00
2022-11-06T04:03:55.810Z,82.45
2022-11-06T04:06:48.402Z,83.10
2022-11-06T04:09:36.922Z,82.62
2022-11-06T04:12:23.434Z,83.30
2022-11-06T04:15:15.030Z,82.95
2022-11-06T04:18:02.233Z,82.62
2022-11-06T04:20:57.724Z,83.07
2022-11-06T04:24:04.114Z,83.17
2022-11-06T04:26:57.172Z,82.35
2022-11-06T04:30:12.154Z,83.02
2022-11-06T04:33:04.593Z,83.15
2022-11-06T04:36:09.978Z,82.55
2022-11-06T04:39:09.433Z,83.38
2022-11-06T04:42:18.006Z,82.77
2022-11-06T04:45:12.155Z,83.29
2022-11-06T04:47:59.703Z,82.36
2022-11-06T04:50:50.498Z,82.70
2022-11-06T04:53:38.983Z,82.86
2022-11-06T04:56:35.250Z,83.33
2022-11-06T04:59:26.877Z,83.56
2022-11-06T05:02:14.132Z,83.27
2022-11-06T05:05:01.183Z,83.45
2022-11-06T05:07:47.982Z,82.77
2022-11-06T05:10:35.265Z,83.56
2022-11-06T05:13:22.094Z,83.68
2022-11-06T05:16:09.130Z,83.54
2022-11-06T05:18:56.394Z,83.61
2022-11-06T05:21:41.839Z,83.42
2022-11-06T05:24:28.762Z,83.89
2022-11-06T05:27:15.631Z,83.32
2022-11-06T05:30:02.633Z,83.92
2022-11-06T05:32:49.501Z,83.05
2022-11-06T05:35:37.348Z,83.23
2022-11-06T05:38:24.295Z,83.34
2022-11-06T05:41:11.255Z,84.19
2022-11-06T05:43:58.141Z,84.16
2022-11-06T05:46:49.701Z,84.14
2022-11-06T05:49:38.506Z,82.98
2022-11-06T05:52:25.386Z,84.08
2022-11-06T05:55:15.032Z,83.49
2022-11-06T05:58:03.190Z,84.38
2022-11-06T06:00:50.054Z,83.32
2022-11-06T06:03:37.213Z,83.78
2022-11-06T06:06:24.905Z,84.25
2022-11-06T06:09:11.966Z,84.38
2022-11-06T06:11:58.886Z,84.23
2022-11-06T06:14:50.233Z,84.36
2022-11-06T06:17:37.506Z,84.56
2022-11-06T06:20:24.690Z,83.77
2022-11-06T06:23:15.645Z,83.89
2022-11-06T06:26:02.629Z,84.01
2022-11-06T06:28:49.428Z,84.15
2022-11-06T06:31:36.705Z,83.99
2022-11-06T06:34:23.530Z,83.78
2022-11-06T06:37:17.669Z,83.96
2022-11-06T06:40:06.897Z,83.79
2022-11-06T06:42:53.888Z,84.56
2022-11-06T06:45:40.779Z,84.57
2022-11-06T06:48:27.919Z,84.77
2022-11-06T06:51:23.728Z,83.93
2022-11-06T06:54:11.223Z,83.88
2022-11-06T06:56:58.035Z,84.14
2022-11-06T06:59:44.922Z,84.68
2022-11-06T07:02:32.043Z,85.01
2022-11-06T07:05:19.029Z,84.38
2022-11-06T07:08:06.206Z,84.43
2022-11-06T07:10:53.150Z,85.19
2022-11-06T07:13:40.048Z,85.26
2022-11-06T07:16:29.488Z,84.91
2022-11-06T07:19:16.435Z,85.36
2022-11-06T07:22:03.403Z,84.48
2022-11-06T07:24:50.250Z,84.82
2022-11-06T07:27:37.286Z,84.68
2022-11-06T07:30:24.726Z,85.13
2022-11-06T07:33:11.781Z,84.93
2022-11-06T07:35:58.738Z,85.04
2022-11-06T07:38:45.634Z,85.05
2022-11-06T07:41:34.814Z,85.03
2022-11-06T07:44:21.764Z,85.05
2022-11-06T07:47:08.955Z,85.09
2022-11-06T07:49:55.947Z,85.20
2022-11-06T07:52:42.958Z,85.27
2022-11-06T07:55:29.949Z,86.04
2022-11-06T07:58:18.415Z,86.11
2022-11-06T08:01:11.971Z,85.94
2022-11-06T08:04:02.264Z,85.81
2022-11-06T08:06:49.101Z,85.60
2022-11-06T08:09:35.926Z,86.35
2022-11-06T08:12:22.962Z,85.80
2022-11-06T08:15:09.910Z,86.27
2022-11-06T08:17:56.821Z,85.94
2022-11-06T08:20:43.610Z,85.72
2022-11-06T08:23:32.862Z,86.35
2022-11-06T08:26:23.565Z,86.39
2022-11-06T08:29:10.545Z,86.08
2022-11-06T08:31:57.329Z,85.98
2022-11-06T08:34:44.484Z,86.08
2022-11-06T08:37:31.370Z,86.44
2022-11-06T08:40:18.247Z,86.36
2022-11-06T08:43:05.153Z,87.03
2022-11-06T08:45:52.718Z,85.96
2022-11-06T08:48:39.771Z,86.09
2022-11-06T08:51:26.817Z,86.57
2022-11-06T08:54:13.750Z,86.41
2022-11-06T08:57:00.703Z,86.57
2022-11-06T08:59:47.823Z,86.61
2022-11-06T09:02:35.349Z,86.29
2022-11-06T09:05:22.675Z,86.67
2022-11-06T09:08:09.558Z,86.81
2022-11-06T09:11:01.032Z,86.73
2022-11-06T09:13:47.919Z,86.52
2022-11-06T09:16:35.024Z,87.04
2022-11-06T09:19:21.890Z,86.81
2022-11-06T09:22:08.854Z,86.50
2022-11-06T09:25:03.523Z,86.52
2022-11-06T09:27:57.395Z,86.78
2022-11-06T09:30:48.594Z,86.50
2022-11-06T09:33:35.716Z,86.76
2022-11-06T09:36:26.620Z,86.51
2022-11-06T09:39:13.475Z,86.31
2022-11-06T09:42:18.167Z,86.47
2022-11-06T09:45:17.149Z,86.73
2022-11-06T09:48:11.298Z,86.65
2022-11-06T09:51:08.581Z,87.08
2022-11-06T09:54:06.646Z,86.61
2022-11-06T09:56:58.208Z,86.69
2022-11-06T09:59:46.234Z,86.24
2022-11-06T10:02:47.881Z,86.60
2022-11-06T10:05:47.374Z,86.55
2022-11-06T10:08:34.238Z,86.78
2022-11-06T10:11:36.143Z,86.70
2022-11-06T10:14:41.532Z,86.66
2022-11-06T10:17:37.079Z,86.56
2022-11-06T10:20:36.038Z,86.62
2022-11-06T10:23:31.302Z,86.37
2022-11-06T10:26:39.807Z,86.61
2022-11-06T10:29:45.630Z,86.57
2022-11-06T10:32:44.238Z,86.78
2022-11-06T10:35:38.998Z,87.18
2022-11-06T10:38:40.202Z,86.92
2022-11-06T10:41:41.303Z,86.93
2022-11-06T10:44:55.706Z,86.84
2022-11-06T10:47:47.958Z,87.12
2022-11-06T10:50:36.550Z,87.56
2022-11-06T10:53:27.400Z,87.21
2022-11-06T10:56:34.447Z,87.34
2022-11-06T10:59:21.719Z,87.53
2022-11-06T11:02:09.525Z,87.51
2022-11-06T11:04:58.259Z,87.74
2022-11-06T11:07:49.577Z,87.56
2022-11-06T11:11:11.118Z,87.76
2022-11-06T11:13:58.218Z,87.71
2022-11-06T11:17:05.824Z,87.99
2022-11-06T11:19:57.285Z,87.39
2022-11-06T11:22:44.228Z,88.12
2022-11-06T11:25:45.401Z,88.01
2022-11-06T11:28:41.473Z,88.04
2022-11-06T11:31:32.975Z,88.45
2022-11-06T11:34:24.366Z,88.36
2022-11-06T11:37:25.954Z,88.63
2022-11-06T11:40:13.612Z,88.30
2022-11-06T11:43:00.615Z,88.45
2022-11-06T11:45:47.484Z,88.47
2022-11-06T11:48:34.457Z,88.45
2022-11-06T11:51:32.564Z,88.39
2022-11-06T11:54:25.342Z,88.34
2022-11-06T11:57:40.165Z,88.20
2022-11-06T12:00:36.230Z,88.62
2022-11-06T12:03:30.740Z,88.35
2022-11-06T12:06:32.584Z,88.28
2022-11-06T12:09:19.778Z,88.64
2022-11-06T12:12:07.631Z,88.85
2022-11-06T12:14:56.962Z,88.75
2022-11-06T12:17:44.253Z,88.67
2022-11-06T12:20:37.997Z,88.45
2022-11-06T12:23:36.287Z,88.60
2022-11-06T12:27:01.719Z,88.67
2022-11-06T12:30:07.145Z,88.73
2022-11-06T12:33:06.359Z,89.02
2022-11-06T12:36:17.788Z,88.79
2022-11-06T12:39:12.685Z,89.07
2022-11-06T12:41:43.887Z,88.88
2022-11-06T12:44:33.683Z,88.87
2022-11-06T12:47:47.078Z,88.91
2022-11-06T12:51:02.119Z,88.95
2022-11-06T12:54:18.866Z,88.88
2022-11-06T12:57:27.507Z,88.82
2022-11-06T13:00:36.562Z,89.14
2022-11-06T13:03:59.661Z,88.77
2022-11-06T13:07:26.359Z,88.88
2022-11-06T13:10:25.306Z,89.05
2022-11-06T13:13:22.386Z,88.61
2022-11-06T13:16:33.386Z,89.25
2022-11-06T13:19:53.937Z,88.81
2022-11-06T13:22:54.273Z,88.56
2022-11-06T13:25:43.897Z,88.81
2022-11-06T13:28:36.754Z,89.19
2022-11-06T13:31:27.761Z,88.69
2022-11-06T13:34:19.601Z,88.83
2022-11-06T13:37:07.577Z,88.71
2022-11-06T13:40:01.330Z,89.08
2022-11-06T13:42:56.242Z,89.35
2022-11-06T13:45:44.114Z,89.07
2022-11-06T13:48:57.711Z,89.29
2022-11-06T13:52:06.776Z,89.43
2022-11-06T13:55:19.188Z,88.89
2022-11-06T13:58:15.495Z,89.07
2022-11-06T14:01:27.155Z,89.29
2022-11-06T14:04:39.241Z,88.77
2022-11-06T14:07:28.565Z,88.32
2022-11-06T14:10:15.594Z,88.58
2022-11-06T14:13:06.952Z,88.52
2022-11-06T14:15:59.546Z,89.05
2022-11-06T14:18:46.506Z,88.37
2022-11-06T14:22:01.875Z,88.66
2022-11-06T14:25:01.292Z,88.60
2022-11-06T14:27:49.104Z,88.47
2022-11-06T14:31:11.532Z,88.57
2022-11-06T14:34:01.021Z,88.69
2022-11-06T14:36:51.840Z,88.80
2022-11-06T14:40:16.666Z,88.28
2022-11-06T14:43:07.763Z,88.90
2022-11-06T14:45:54.677Z,88.83
2022-11-06T14:49:06.178Z,88.87
2022-11-06T14:51:58.142Z,88.35
2022-11-06T14:54:45.393Z,88.90
2022-11-06T14:57:36.739Z,88.72
2022-11-06T15:00:28.424Z,88.98
2022-11-06T15:03:17.385Z,88.86
2022-11-06T15:06:04.357Z,88.56
2022-11-06T15:09:06.387Z,88.18
2022-11-06T15:11:53.434Z,88.33
2022-11-06T15:14:40.389Z,88.83
2022-11-06T15:17:32.684Z,88.74
2022-11-06T15:20:25.985Z,88.80
2022-11-06T15:23:31.226Z,88.49
2022-11-06T15:26:25.001Z,88.68
2022-11-06T15:29:20.766Z,88.87
2022-11-06T15:32:11.017Z,88.66
2022-11-06T15:35:04.955Z,88.22
2022-11-06T15:37:58.838Z,88.70
2022-11-06T15:40:53.962Z,88.65
2022-11-06T15:43:46.033Z,88.51
2022-11-06T15:46:33.066Z,88.48
2022-11-06T15:49:49.373Z,88.64
2022-11-06T15:52:39.215Z,88.82
2022-11-06T15:55:26.495Z,88.74
2022-11-06T15:58:14.342Z,88.79
2022-11-06T16:01:01.755Z,88.41
2022-11-06T16:04:03.084Z,88.52
2022-11-06T16:06:51.618Z,88.69
2022-11-06T16:09:42.396Z,88.42
2022-11-06T16:12:32.921Z,88.73
2022-11-06T16:15:20.108Z,88.04
2022-11-06T16:18:06.982Z,88.47
2022-11-06T16:20:54.055Z,88.53
2022-11-06T16:24:03.140Z,88.28
2022-11-06T16:26:52.759Z,88.50
2022-11-06T16:29:43.853Z,88.15
2022-11-06T16:32:38.783Z,88.42
2022-11-06T16:36:05.286Z,88.08
2022-11-06T16:39:01.336Z,88.67
2022-11-06T16:42:17.336Z,88.06
2022-11-06T16:45:06.219Z,87.73
2022-11-06T16:47:53.053Z,88.19
2022-11-06T16:51:04.777Z,88.21
2022-11-06T16:54:04.229Z,88.25
2022-11-06T16:56:54.007Z,88.27
2022-11-06T16:59:45.954Z,88.60
2022-11-06T17:02:42.803Z,88.32
2022-11-06T17:05:36.467Z,87.99
2022-11-06T17:08:39.384Z,88.41
2022-11-06T17:11:32.376Z,88.29
2022-11-06T17:14:19.606Z,88.84
2022-11-06T17:17:13.976Z,88.84
2022-11-06T17:20:00.844Z,88.26
2022-11-06T17:22:47.763Z,88.34
2022-11-06T17:25:34.894Z,88.41
2022-11-06T17:28:21.662Z,87.88
2022-11-06T17:31:08.956Z,87.32
2022-11-06T17:33:55.751Z,87.94
2022-11-06T17:36:45.734Z,88.14
2022-11-06T17:39:32.656Z,87.70
2022-11-06T17:42:19.521Z,87.98
2022-11-06T17:45:06.413Z,88.07
2022-11-06T17:47:53.590Z,88.13
2022-11-06T17:50:40.759Z,88.22
2022-11-06T17:53:27.609Z,88.05
2022-11-06T17:56:14.559Z,87.71
2022-11-06T17:59:01.655Z,87.80
2022-11-06T18:01:48.724Z,88.10
2022-11-06T18:04:36.513Z,87.51
2022-11-06T18:07:23.342Z,87.52
2022-11-06T18:10:10.419Z,87.96
2022-11-06T18:12:57.343Z,87.65
2022-11-06T18:15:44.198Z,87.95
2022-11-06T18:18:31.108Z,87.97
2022-11-06T18:21:18.193Z,87.50
2022-11-06T18:24:05.106Z,87.98
2022-11-06T18:26:52.498Z,87.65
2022-11-06T18:29:39.556Z,87.50
2022-11-06T18:32:26.530Z,87.55
2022-11-06T18:35:13.402Z,87.79
2022-11-06T18:38:00.350Z,87.91
2022-11-06T18:40:51.424Z,87.69
2022-11-06T18:43:38.939Z,87.78
2022-11-06T18:49:16.468Z,88.26
2022-11-06T18:51:43.655Z,88.30
2022-11-06T18:54:11.676Z,88.25
2022-11-06T18:56:39.114Z,88.38
2022-11-06T18:59:08.416Z,87.91
2022-11-06T19:01:36.294Z,87.96
2022-11-06T19:04:24.304Z,88.08
2022-11-06T19:07:11.219Z,88.41
2022-11-06T19:09:58.307Z,88.28
2022-11-06T19:12:45.194Z,88.38
2022-11-06T19:15:32.118Z,87.76
2022-11-06T19:18:18.982Z,88.26
2022-11-06T19:21:05.967Z,87.58
2022-11-06T19:23:53.393Z,87.41
2022-11-06T19:26:40.339Z,87.75
2022-11-06T19:29:28.961Z,87.94
2022-11-06T19:32:16.023Z,87.69
2022-11-06T19:35:02.885Z,87.82
2022-11-06T19:37:50.025Z,87.65
2022-11-06T19:40:36.912Z,87.46
2022-11-06T19:43:23.984Z,87.47
2022-11-06T19:46:10.862Z,87.55
2022-11-06T19:48:57.762Z,87.44
2022-11-06T19:51:45.566Z,87.61
2022-11-06T19:54:32.898Z,87.98
2022-11-06T19:57:29.039Z,87.60
2022-11-06T20:00:17.081Z,87.91
2022-11-06T20:03:04.851Z,87.38
2022-11-06T20:05:32.540Z,87.41
2022-11-06T20:07:59.606Z,87.52
2022-11-06T20:10:26.683Z,87.35
2022-11-06T20:13:13.981Z,87.70
2022-11-06T20:16:01.313Z,87.13
2022-11-06T20:18:49.708Z,86.98
2022-11-06T20:21:36.789Z,87.38
2022-11-06T20:24:24.067Z,87.47
2022-11-06T20:27:11.651Z,87.38
2022-11-06T20:29:58.606Z,86.91
2022-11-06T20:32:45.687Z,87.09
2022-11-06T20:35:32.719Z,87.06
2022-11-06T20:38:19.650Z,87.48
2022-11-06T20:41:06.672Z,86.81
2022-11-06T20:43:53.583Z,87.01
2022-11-06T20:46:41.979Z,87.19
2022-11-06T20:49:28.916Z,87.20
2022-11-06T20:52:15.934Z,86.70
2022-11-06T20:54:59.020Z,87.22
2022-11-06T20:57:46.024Z,87.32
2022-11-06T21:00:33.791Z,87.20
2022-11-06T21:03:22.183Z,86.78
2022-11-06T21:06:09.679Z,86.79
2022-11-06T21:08:58.363Z,86.45
2022-11-06T21:11:47.469Z,86.87
2022-11-06T21:14:34.602Z,87.08
2022-11-06T21:17:21.725Z,86.85
2022-11-06T21:20:08.727Z,86.40
2022-11-06T21:22:55.699Z,87.12
2022-11-06T21:25:45.254Z,86.62
2022-11-06T21:28:32.844Z,86.72
2022-11-06T21:31:19.955Z,86.38
2022-11-06T21:34:08.936Z,86.61
2022-11-06T21:37:02.388Z,86.67
2022-11-06T21:39:50.045Z,86.73
2022-11-06T21:42:36.891Z,87.14
2022-11-06T21:45:24.098Z,87.12
2022-11-06T21:48:32.533Z,86.75
2022-11-06T21:51:24.178Z,86.57
2022-11-06T21:54:10.623Z,86.99
2022-11-06T21:56:59.009Z,86.54
2022-11-06T21:59:47.266Z,86.77
2022-11-06T22:02:34.437Z,86.95
2022-11-06T22:05:21.503Z,86.51
2022-11-06T22:08:08.679Z,86.43
2022-11-06T22:10:55.956Z,86.58
2022-11-06T22:13:42.898Z,86.55
2022-11-06T22:16:31.081Z,86.21
2022-11-06T22:19:19.111Z,86.81
2022-11-06T22:22:06.124Z,86.34
2022-11-06T22:24:53.190Z,86.22
2022-11-06T22:27:41.168Z,86.54
2022-11-06T22:30:29.134Z,86.27
2022-11-06T22:33:16.323Z,86.31
2022-11-06T22:36:03.415Z,86.46
2022-11-06T22:38:50.413Z,86.53
2022-11-06T22:41:39.725Z,86.47
2022-11-06T22:44:27.404Z,86.17
2022-11-06T22:47:14.666Z,86.54
2022-11-06T22:50:01.725Z,86.43
2022-11-06T22:52:48.869Z,86.39
2022-11-06T22:55:36.188Z,86.00
2022-11-06T22:58:23.330Z,86.26
2022-11-06T23:01:11.663Z,85.96
2022-11-06T23:03:59.737Z,85.94
2022-11-06T23:06:46.679Z,86.03
2022-11-06T23:09:34.510Z,85.83
2022-11-06T23:12:21.471Z,86.10
2022-11-06T23:15:08.390Z,85.79
2022-11-06T23:17:56.167Z,85.84
2022-11-06T23:20:43.129Z,85.84
2022-11-06T23:23:30.259Z,85.68
2022-11-06T23:26:17.136Z,85.64
2022-11-06T23:29:04.833Z,86.11
2022-11-06T23:31:51.875Z,85.72
2022-11-06T23:34:38.824Z,85.31
2022-11-06T23:37:25.955Z,85.70
2022-11-06T23:40:13.322Z,85.90
2022-11-06T23:42:40.541Z,85.75
2022-11-06T23:45:26.385Z,85.72
2022-11-06T23:47:53.488Z,85.51
2022-11-06T23:50:20.412Z,85.33
2022-11-06T23:52:47.238Z,85.23
2022-11-06T23:55:34.516Z,85.44
2022-11-06T23:58:21.449Z,85.12
